Flight Track Log - Related Links

Times and Time Zones

All times are in EDT time to prevent confusion due to time zone crossing. See the UAL33 flight status page for this flight to view local times or setup timezone preferences in your user account.

Time Position Orientation Groundspeed Altitude Reporting Facility
EDT Latitude Longitude Course Direction KTS MPH feet Rate Location/Type
Thu 03:12:09 PM 33.9340 -118.4370 264° West 181 208 1,700  Level FlightAware ADS-B
Thu 03:12:39 PM 33.9280 -118.4740 259° West 223 257 2,700 2,509 Climbing FlightAware ADS-B
Thu 03:13:04 PM 33.9190 -118.5000 247° West 223 257 4,000 3,055 Climbing FlightAware ADS-B
Thu 03:13:34 PM 33.9020 -118.5340 239° Southwest 236 272 5,500 2,800 Climbing FlightAware ADS-B
Thu 03:13:49 PM 33.8860 -118.5410 200° South 253 291 6,100 2,600 Climbing FlightAware ADS-B
Thu 03:14:04 PM 33.8690 -118.5390 174° South 253 291 6,800 2,880 Climbing FlightAware ADS-B
Thu 03:14:14 PM 33.8580 -118.5310 149° Southeast 255 293 7,300 3,120 Climbing FlightAware ADS-B
Thu 03:14:29 PM 33.8490 -118.5110 118° Southeast 251 289 8,100 2,800 Climbing FlightAware ADS-B
Thu 03:14:59 PM 33.8610 -118.4760 68° East 251 289 9,400 2,829 Climbing FlightAware ADS-B
Thu 03:15:39 PM 33.9020 -118.4460 31° Northeast 255 293 11,400 2,850 Climbing FlightAware ADS-B
Thu 03:16:19 PM 33.9410 -118.4140 34° Northeast 265 305 13,200 2,400 Climbing FlightAware ADS-B
Thu 03:17:04 PM 33.9730 -118.3570 56° Northeast 297 342 14,800 1,341 Climbing FlightAware ADS-B
Thu 03:17:44 PM 34.0080 -118.2950 56° Northeast 358 412 15,100 988 Climbing FlightAware ADS-B
Thu 03:18:29 PM 34.0520 -118.2170 56° Northeast 393 452 16,200 1,835 Climbing FlightAware ADS-B
Thu 03:19:09 PM 34.0950 -118.1420 55° Northeast 410 472 17,700 2,325 Climbing FlightAware ADS-B
Thu 03:19:49 PM 34.1380 -118.0650 56° Northeast 417 480 19,300 2,047 Climbing FlightAware ADS-B
Thu 03:20:34 PM 34.1870 -117.9780 56° Northeast 435 501 20,600 1,906 Climbing FlightAware ADS-B
Thu 03:21:14 PM 34.2320 -117.8980 56° Northeast 446 513 22,000 1,906 Climbing FlightAware ADS-B
Thu 03:21:59 PM 34.2870 -117.8010 56° Northeast 459 528 23,300 1,694 Climbing FlightAware ADS-B
Thu 03:22:39 PM 34.3340 -117.7160 56° Northeast 471 542 24,400 1,624 Climbing FlightAware ADS-B
Thu 03:23:24 PM 34.3930 -117.6200 53° Northeast 480 552 25,600 1,624 Climbing FlightAware ADS-B
Thu 03:24:04 PM 34.4500 -117.5360 51° Northeast 487 560 26,700 1,575 Climbing FlightAware ADS-B
Thu 03:24:44 PM 34.5090 -117.4530 49° Northeast 496 571 27,700 1,412 Climbing FlightAware ADS-B
Thu 03:25:29 PM 34.5790 -117.3550 49° Northeast 504 580 28,700 1,553 Climbing FlightAware ADS-B
Thu 03:26:09 PM 34.6400 -117.2690 49° Northeast 503 579 29,900 1,835 Climbing FlightAware ADS-B
Thu 03:26:54 PM 34.7060 -117.1760 49° Northeast 499 574 31,300 1,200 Climbing FlightAware ADS-B
Thu 03:27:29 PM 34.7550 -117.1060 50° Northeast 499 574 31,500 1,425 Climbing FlightAware ADS-B
Thu 03:28:14 PM 34.8250 -117.0060 50° Northeast 502 578 33,200 1,906 Climbing FlightAware ADS-B
Thu 03:28:54 PM 34.8850 -116.9200 50° Northeast 501 577 34,200 1,553 Climbing FlightAware ADS-B
Thu 03:29:39 PM 34.9540 -116.8220 49° Northeast 494 568 35,400 1,400 Climbing FlightAware ADS-B
Thu 03:30:24 PM 35.0190 -116.7280 50° Northeast 496 571 36,300 1,129 Climbing FlightAware ADS-B
Thu 03:31:04 PM 35.0780 -116.6420 50° Northeast 494 568 37,000 494 Climbing FlightAware ADS-B
Thu 03:31:49 PM 35.1450 -116.5460 50° Northeast 492 566 37,000  Level FlightAware ADS-B
Thu 03:32:29 PM 35.2040 -116.4600 50° Northeast 487 560 37,000  Level FlightAware ADS-B
Thu 03:33:09 PM 35.2610 -116.3760 50° Northeast 485 558 37,000  Level FlightAware ADS-B
Thu 03:33:54 PM 35.3220 -116.2870 50° Northeast 484 557 37,000  Level FlightAware ADS-B
Thu 03:34:34 PM 35.3770 -116.2060 50° Northeast 484 557 37,000  Level FlightAware ADS-B
Thu 03:35:19 PM 35.4490 -116.1020 50° Northeast 482 555 37,000  Level FlightAware ADS-B
Thu 03:35:59 PM 35.5050 -116.0180 51° Northeast 482 555 37,000  Level FlightAware ADS-B
Thu 03:36:39 PM 35.5610 -115.9360 50° Northeast 483 556 37,000  Level FlightAware ADS-B
Thu 03:37:24 PM 35.6230 -115.8400 52° Northeast 487 560 37,000  Level FlightAware ADS-B
Thu 03:38:04 PM 35.6580 -115.7360 67° East 494 568 37,000  Level FlightAware ADS-B
Thu 03:38:44 PM 35.6720 -115.6260 81° East 496 571 37,000  Level FlightAware ADS-B
Thu 03:39:29 PM 35.6870 -115.4960 82° East 497 572 37,000  Level FlightAware ADS-B
Thu 03:40:09 PM 35.7000 -115.3840 82° East 500 575 37,000  Level FlightAware ADS-B
Thu 03:40:54 PM 35.7130 -115.2610 83° East 501 577 37,000  Level FlightAware ADS-B
Thu 03:41:34 PM 35.7260 -115.1470 82° East 503 579 37,000  Level FlightAware ADS-B
Thu 03:42:19 PM 35.7400 -115.0210 82° East 504 580 37,000  Level FlightAware ADS-B
Thu 03:42:59 PM 35.7540 -114.9070 81° East 505 581 37,000  Level FlightAware ADS-B
Thu 03:43:39 PM 35.7690 -114.7900 81° East 505 581 37,000  Level FlightAware ADS-B
Thu 03:44:24 PM 35.7840 -114.6630 82° East 505 581 37,000  Level FlightAware ADS-B
Thu 03:45:04 PM 35.7970 -114.5490 82° East 505 581 37,000  Level FlightAware ADS-B
Thu 03:45:44 PM 35.8110 -114.4360 81° East 506 582 37,000  Level FlightAware ADS-B
Thu 03:46:29 PM 35.8260 -114.3050 82° East 506 582 37,000  Level FlightAware ADS-B
Thu 03:47:09 PM 35.8390 -114.1920 82° East 506 582 37,000  Level FlightAware ADS-B
Thu 03:47:54 PM 35.8530 -114.0710 82° East 508 585 37,000  Level FlightAware ADS-B
Thu 03:48:34 PM 35.8660 -113.9510 82° East 508 585 37,000  Level FlightAware ADS-B
Thu 03:49:19 PM 35.8810 -113.8180 82° East 508 585 37,000  Level FlightAware ADS-B
Thu 03:49:59 PM 35.8940 -113.7030 82° East 508 585 37,000  Level FlightAware ADS-B
Thu 03:50:39 PM 35.9060 -113.5900 82° East 508 585 37,000  Level FlightAware ADS-B
Thu 03:51:19 PM 35.9180 -113.4800 82° East 507 583 37,000  Level FlightAware ADS-B
Thu 03:52:04 PM 35.9320 -113.3500 82° East 504 580 37,000  Level FlightAware ADS-B
Thu 03:52:49 PM 35.9460 -113.2190 82° East 503 579 37,000  Level FlightAware ADS-B
Thu 03:53:29 PM 35.9570 -113.1060 83° East 502 578 37,000  Level FlightAware ADS-B
Thu 03:54:09 PM 35.9690 -112.9920 83° East 499 574 37,000  Level FlightAware ADS-B
Thu 03:54:54 PM 35.9820 -112.8660 83° East 498 573 37,000  Level FlightAware ADS-B
Thu 03:55:34 PM 35.9930 -112.7520 83° East 498 573 37,000  Level FlightAware ADS-B
Thu 03:56:19 PM 36.0060 -112.6280 83° East 497 572 37,000  Level FlightAware ADS-B
Thu 03:56:59 PM 36.0170 -112.5160 83° East 497 572 37,000  Level FlightAware ADS-B
Thu 03:57:29 PM 36.0240 -112.4390 84° East 497 572 37,000  Level FlightAware ADS-B
Thu 03:58:14 PM 36.0320 -112.3620 83° East 497 572 37,000  Level FlightAware ADS-B
Thu 03:59:04 PM 36.0440 -112.2420 83° East 497 572 37,000  Level FlightAware ADS-B
Thu 03:59:44 PM 36.0530 -112.1460 83° East 497 572 37,000  Level FlightAware ADS-B
Thu 04:00:39 PM 36.0710 -111.9470 84° East 501 577 37,000  Level FlightAware ADS-B
Thu 04:01:19 PM 36.0810 -111.8510 83° East 501 577 37,000  Level FlightAware ADS-B
Thu 04:01:59 PM 36.0900 -111.7540 83° East 501 577 37,000  Level FlightAware ADS-B
Thu 04:02:49 PM 36.1020 -111.6330 83° East 501 577 37,000  Level FlightAware ADS-B
Thu 04:03:29 PM 36.1120 -111.5360 83° East 501 577 37,000  Level FlightAware ADS-B
Thu 04:04:09 PM 36.1220 -111.4390 83° East 501 577 37,000  Level FlightAware ADS-B
Thu 04:04:49 PM 36.1310 -111.3420 83° East 501 577 37,000  Level FlightAware ADS-B
Thu 04:05:29 PM 36.1410 -111.2460 83° East 501 577 37,000  Level FlightAware ADS-B
Thu 04:06:09 PM 36.1500 -111.1490 83° East 501 577 37,000  Level FlightAware ADS-B
Thu 04:06:59 PM 36.1620 -111.0280 83° East 501 577 37,000  Level FlightAware ADS-B
Thu 04:07:39 PM 36.1720 -110.9310 83° East 501 577 37,000  Level FlightAware ADS-B
Thu 04:08:19 PM 36.1810 -110.8340 83° East 501 577 37,000  Level FlightAware ADS-B
Thu 04:08:59 PM 36.1910 -110.7370 83° East 501 577 37,000  Level FlightAware ADS-B
Thu 04:09:49 PM 36.2030 -110.6160 83° East 501 577 37,000  Level FlightAware ADS-B
Thu 04:10:50 PM 36.3547 -110.1481 83° East 527 606 37,000  Level Denver Center
Thu 04:11:52 PM 36.3894 -109.9700 76° East 526 605 37,000  Level Denver Center
Thu 04:12:54 PM 36.4283 -109.7739 76° East 524 603 37,000  Level Denver Center
Thu 04:13:56 PM 36.4617 -109.6050 76° East 523 602 37,000  Level Denver Center
Thu 04:14:58 PM 36.5006 -109.4075 76° East 525 604 37,000  Level Denver Center
Thu 04:16:00 PM 36.5339 -109.2378 76° East 526 605 37,000  Level Denver Center
Thu 04:17:02 PM 36.5667 -109.0678 76° East 525 604 37,000  Level Denver Center
Thu 04:18:04 PM 36.6047 -108.8681 77° East 528 608 37,000  Level Denver Center
Thu 04:19:06 PM 36.6369 -108.6964 77° East 529 609 37,000  Level Denver Center
Thu 04:20:08 PM 36.6747 -108.4994 76° East 524 603 37,000  Level Denver Center
Thu 04:21:10 PM 36.7056 -108.3292 77° East 524 603 37,000  Level Denver Center
Thu 04:22:12 PM 36.7425 -108.1322 77° East 521 600 37,000  Level Denver Center
Thu 04:23:14 PM 36.7842 -107.9650 73° East 524 603 37,000  Level Denver Center
Thu 04:24:16 PM 36.8381 -107.7700 71° East 529 609 37,000  Level Denver Center
Thu 04:25:18 PM 36.8831 -107.6031 71° East 532 612 37,000  Level Denver Center
Thu 04:26:20 PM 36.9289 -107.4350 71° East 532 612 37,000  Level Denver Center
Thu 04:27:22 PM 36.9811 -107.2386 72° East 532 612 37,000  Level Denver Center
Thu 04:28:24 PM 37.0258 -107.0706 72° East 532 612 37,000  Level Denver Center
Thu 04:29:26 PM 37.0775 -106.8706 72° East 540 621 37,000  Level Denver Center
Thu 04:30:28 PM 37.1217 -106.7028 72° East 533 613 37,000  Level Denver Center
Thu 04:31:30 PM 37.1736 -106.5042 72° East 535 616 37,000  Level Denver Center
Thu 04:36:47 PM 37.4199 -105.5630 72° East 531 611 37,000  Level FlightAware ADS-B
Thu 04:37:20 PM 37.4476 -105.4680 70° East 536 617 37,000  Level FlightAware ADS-B
Thu 04:37:53 PM 37.4752 -105.3700 70° East 536 617 37,000  Level FlightAware ADS-B
Thu 04:38:24 PM 37.5001 -105.2820 70° East 535 616 37,000  Level FlightAware ADS-B
Thu 04:38:54 PM 37.5252 -105.1930 70° East 534 615 37,000  Level FlightAware ADS-B
Thu 04:39:25 PM 37.5503 -105.1030 71° East 533 613 37,000  Level FlightAware ADS-B
Thu 04:39:55 PM 37.5748 -105.0150 71° East 528 608 37,000  Level FlightAware ADS-B
Thu 04:40:33 PM 37.6053 -104.9050 71° East 527 606 37,000  Level FlightAware ADS-B
Thu 04:41:04 PM 37.6297 -104.8160 71° East 525 604 37,000  Level FlightAware ADS-B
Thu 04:41:36 PM 37.6558 -104.7220 71° East 529 609 37,000  Level FlightAware ADS-B
Thu 04:42:24 PM 37.6946 -104.5820 71° East 532 612 37,000  Level FlightAware ADS-B
Thu 04:42:55 PM 37.7190 -104.4930 71° East 531 611 37,000  Level FlightAware ADS-B
Thu 04:43:39 PM 37.7530 -104.3670 71° East 532 612 37,000  Level FlightAware ADS-B
Thu 04:44:05 PM 37.7758 -104.2850 71° East 535 616 37,000  Level FlightAware ADS-B
Thu 04:44:36 PM 37.8000 -104.1950 71° East 539 620 37,000  Level FlightAware ADS-B
Thu 04:45:06 PM 37.8244 -104.1050 71° East 540 621 37,000  Level FlightAware ADS-B
Thu 04:45:38 PM 37.8501 -104.0100 71° East 541 623 37,000  Level FlightAware ADS-B
Thu 04:46:08 PM 37.8745 -103.9190 71° East 543 625 37,000  Level FlightAware ADS-B
Thu 04:46:39 PM 37.8994 -103.8270 71° East 544 626 37,000  Level FlightAware ADS-B
Thu 04:47:10 PM 37.9243 -103.7330 71° East 544 626 37,000  Level FlightAware ADS-B
Thu 04:47:40 PM 37.9483 -103.6430 71° East 544 626 37,000  Level FlightAware ADS-B
Thu 04:48:10 PM 37.9725 -103.5520 71° East 546 628 37,000  Level FlightAware ADS-B
Thu 04:48:40 PM 37.9965 -103.4610 71° East 546 628 37,000  Level FlightAware ADS-B
Thu 04:49:11 PM 38.0209 -103.3680 72° East 547 629 37,000  Level FlightAware ADS-B
Thu 04:49:41 PM 38.0450 -103.2770 71° East 548 631 37,000  Level FlightAware ADS-B
Thu 04:50:11 PM 38.0690 -103.1850 72° East 549 632 37,000  Level FlightAware ADS-B
Thu 04:50:42 PM 38.0935 -103.0910 72° East 551 634 37,000  Level FlightAware ADS-B
Thu 04:51:12 PM 38.1176 -102.9980 72° East 550 633 37,000  Level FlightAware ADS-B
Thu 04:51:42 PM 38.1418 -102.9050 72° East 549 632 37,000  Level FlightAware ADS-B
Thu 04:52:12 PM 38.1655 -102.8130 72° East 551 634 37,000  Level FlightAware ADS-B
Thu 04:52:43 PM 38.1888 -102.7200 72° East 552 635 37,000  Level FlightAware ADS-B
Thu 04:53:13 PM 38.2089 -102.6240 75° East 552 635 37,000  Level FlightAware ADS-B
Thu 04:53:50 PM 38.2292 -102.5090 77° East 550 633 37,000  Level FlightAware ADS-B
Thu 04:54:20 PM 38.2451 -102.4130 78° East 552 635 37,000  Level FlightAware ADS-B
Thu 04:54:50 PM 38.2611 -102.3170 78° East 552 635 37,000  Level FlightAware ADS-B
Thu 04:55:21 PM 38.2767 -102.2210 78° East 552 635 37,000  Level FlightAware ADS-B
Thu 04:55:51 PM 38.2923 -102.1250 78° East 551 634 37,000 831 Level FlightAware ADS-B
Thu 04:56:26 PM 38.3104 -102.0150 78° East 544 626 37,900 1,477 Climbing FlightAware ADS-B
Thu 04:56:56 PM 38.3256 -101.9210 78° East 539 620 38,600 1,100 Climbing FlightAware ADS-B
Thu 04:57:26 PM 38.3407 -101.8270 78° East 540 621 39,000 393 Climbing FlightAware ADS-B
Thu 04:57:57 PM 38.3558 -101.7320 79° East 543 625 39,000  Level FlightAware ADS-B
Thu 04:58:27 PM 38.3709 -101.6380 78° East 542 624 39,000  Level FlightAware ADS-B
Thu 04:58:57 PM 38.3862 -101.5420 78° East 544 626 39,000  Level FlightAware ADS-B
Thu 04:59:22 PM 38.3878 -101.5111 78° East 539 620 39,000  Level Denver Center
Thu 05:01:08 PM 38.4386 -101.1764 79° East 543 625 39,000  Level Kansas City Center
Thu 05:01:26 PM 38.4478 -101.1181 79° East 543 625 39,000  Level Denver Center
Thu 05:02:28 PM 38.4806 -100.9042 79° East 548 631 39,000  Level Denver Center
Thu 05:03:30 PM 38.5081 -100.7200 79° East 550 633 39,000  Level Denver Center
Thu 05:04:32 PM 38.5356 -100.5339 79° East 555 639 39,000  Level Denver Center
Thu 05:05:33 PM 38.5669 -100.3200 79° East 551 634 39,000  Level Denver Center
Thu 05:06:47 PM 38.5931 -100.1356 80° East 548 631 39,000  Level Denver Center
Thu 05:07:50 PM 38.6289 -99.8900 79° East 549 632 39,000  Level Denver Center
Thu 05:08:52 PM 38.6581 -99.6750 80° East 546 628 39,000  Level Denver Center
Thu 05:09:53 PM 38.6839 -99.4919 80° East 547 629 39,000  Level Denver Center
Thu 05:10:55 PM 38.7083 -99.3089 80° East 546 628 39,000  Level Denver Center
Thu 05:11:25 PM 38.7200 -99.2142 81° East 547 629 39,000  Level Kansas City Center
Thu 05:12:29 PM 38.7475 -99.0192 80° East 551 634 39,000  Level Kansas City Center
Thu 05:13:31 PM 38.7728 -98.8261 80° East 550 633 39,000  Level Kansas City Center
Thu 05:14:32 PM 38.8031 -98.5928 80° East 551 634 39,000  Level Kansas City Center
Thu 05:15:35 PM 38.8278 -98.3992 81° East 550 633 39,000  Level Kansas City Center
Thu 05:16:37 PM 38.8531 -98.2042 80° East 551 634 39,000  Level Kansas City Center
Thu 05:17:40 PM 38.8772 -98.0103 81° East 548 631 39,000  Level Kansas City Center
Thu 05:18:41 PM 38.9031 -97.8056 81° East 548 631 39,000  Level Kansas City Center
Thu 05:19:42 PM 38.9289 -97.5939 81° East 546 628 39,000  Level Kansas City Center
Thu 05:20:44 PM 38.9514 -97.4300 80° East 548 631 39,000  Level Kansas City Center
Thu 05:21:48 PM 38.9828 -97.2033 80° East 527 606 39,000  Level Kansas City Center
Thu 05:27:19 PM 39.1260 -96.1510 80° East 531 611 39,000  Level FlightAware ADS-B
Thu 05:27:59 PM 39.1410 -96.0270 81° East 531 611 39,000  Level FlightAware ADS-B
Thu 05:28:39 PM 39.1570 -95.9020 81° East 531 611 39,000  Level FlightAware ADS-B
Thu 05:29:39 PM 39.1660 -95.8260 81° East 530 610 39,000  Level FlightAware ADS-B
Thu 05:30:19 PM 39.1830 -95.6860 81° East 530 610 39,000  Level FlightAware ADS-B
Thu 05:31:04 PM 39.1980 -95.5530 82° East 530 610 39,000  Level FlightAware ADS-B
Thu 05:31:44 PM 39.2140 -95.4230 81° East 530 610 39,000  Level FlightAware ADS-B
Thu 05:32:24 PM 39.2280 -95.2960 82° East 528 608 39,000  Level FlightAware ADS-B
Thu 05:33:09 PM 39.2450 -95.1530 81° East 527 606 39,000  Level FlightAware ADS-B
Thu 05:33:49 PM 39.2580 -95.0370 82° East 526 605 39,000  Level FlightAware ADS-B
Thu 05:34:34 PM 39.2730 -94.9040 82° East 523 602 39,000  Level FlightAware ADS-B
Thu 05:35:14 PM 39.2870 -94.7800 82° East 523 602 39,000  Level FlightAware ADS-B
Thu 05:35:54 PM 39.2990 -94.6760 81° East 521 600 39,000  Level FlightAware ADS-B
Thu 05:36:39 PM 39.3330 -94.4180 80° East 518 596 39,000  Level FlightAware ADS-B
Thu 05:37:19 PM 39.3490 -94.2950 80° East 516 594 39,000  Level FlightAware ADS-B
Thu 05:38:04 PM 39.3660 -94.1590 81° East 515 593 39,000  Level FlightAware ADS-B
Thu 05:38:44 PM 39.3810 -94.0350 81° East 514 592 39,000  Level FlightAware ADS-B
Thu 05:39:24 PM 39.3960 -93.9150 81° East 514 592 39,000  Level FlightAware ADS-B
Thu 05:40:09 PM 39.4120 -93.7830 81° East 514 592 39,000  Level FlightAware ADS-B
Thu 05:40:49 PM 39.4270 -93.6610 81° East 515 593 39,000  Level FlightAware ADS-B
Thu 05:41:34 PM 39.4650 -93.5320 69° East 498 573 39,000  Level FlightAware ADS-B
Thu 05:42:14 PM 39.5260 -93.4460 47° Northeast 481 554 39,000  Level FlightAware ADS-B
Thu 05:42:59 PM 39.5960 -93.3580 44° Northeast 470 541 39,000  Level FlightAware ADS-B
Thu 05:43:39 PM 39.6590 -93.2790 44° Northeast 466 536 39,000  Level FlightAware ADS-B
Thu 05:44:19 PM 39.7200 -93.2020 44° Northeast 463 533 39,000  Level FlightAware ADS-B
Thu 05:45:04 PM 39.7910 -93.1120 44° Northeast 461 531 39,000  Level FlightAware ADS-B
Thu 05:45:44 PM 39.8470 -93.0320 48° Northeast 477 549 39,000  Level FlightAware ADS-B
Thu 05:46:29 PM 39.8820 -92.9110 69° East 516 594 39,000  Level FlightAware ADS-B
Thu 05:47:04 PM 39.8850 -92.7970 88° East 535 616 39,000  Level FlightAware ADS-B
Thu 05:47:59 PM 39.8850 -92.6310 90° East 539 620 39,000  Level FlightAware ADS-B
Thu 05:48:39 PM 39.8850 -92.4960 90° East 542 624 39,000  Level FlightAware ADS-B
Thu 05:49:29 PM 39.8850 -92.3360 90° East 540 621 39,000  Level FlightAware ADS-B
Thu 05:50:09 PM 39.8850 -92.2250 90° East 540 621 39,000  Level FlightAware ADS-B
Thu 05:50:44 PM 39.8840 -92.0940 91° East 531 611 39,000  Level FlightAware ADS-B
Thu 05:51:34 PM 39.8830 -91.9270 90° East 529 609 39,000  Level FlightAware ADS-B
Thu 05:52:14 PM 39.8820 -91.8020 91° East 527 606 39,000  Level FlightAware ADS-B
Thu 05:52:59 PM 39.8810 -91.6630 90° East 526 605 39,000  Level FlightAware ADS-B
Thu 05:53:39 PM 39.8800 -91.5330 91° East 527 606 39,000  Level FlightAware ADS-B
Thu 05:54:14 PM 39.8790 -91.4240 91° East 529 609 39,000  Level FlightAware ADS-B
Thu 05:55:04 PM 39.8780 -91.2750 90° East 529 609 39,000  Level FlightAware ADS-B
Thu 05:55:44 PM 39.8740 -91.1390 92° East 534 615 39,000  Level FlightAware ADS-B
Thu 05:56:24 PM 39.8720 -91.0160 91° East 536 617 39,000  Level FlightAware ADS-B
Thu 05:57:09 PM 39.8690 -90.8610 91° East 539 620 39,000  Level FlightAware ADS-B
Thu 05:57:49 PM 39.8670 -90.7340 91° East 541 623 39,000  Level FlightAware ADS-B
Thu 05:58:34 PM 39.8640 -90.5830 91° East 544 626 39,000  Level FlightAware ADS-B
Thu 05:59:14 PM 39.8610 -90.4540 92° East 546 628 39,000  Level FlightAware ADS-B
Thu 05:59:59 PM 39.8580 -90.3030 91° East 545 627 39,000  Level FlightAware ADS-B
Thu 06:00:29 PM 39.8550 -90.2100 92° East 545 627 39,000  Level FlightAware ADS-B
Thu 06:01:14 PM 39.8520 -90.0570 91° East 544 626 39,000  Level FlightAware ADS-B
Thu 06:02:04 PM 39.8480 -89.9000 92° East 542 624 39,000  Level FlightAware ADS-B
Thu 06:02:44 PM 39.8440 -89.7760 92° East 539 620 39,000  Level FlightAware ADS-B
Thu 06:03:29 PM 39.8410 -89.6200 91° East 535 616 39,000  Level FlightAware ADS-B
Thu 06:04:09 PM 39.8420 -89.4980 89° East 532 612 39,000  Level FlightAware ADS-B
Thu 06:04:49 PM 39.8440 -89.3740 89° East 530 610 39,000  Level FlightAware ADS-B
Thu 06:05:34 PM 39.8440 -89.2240 90° East 529 609 39,000  Level FlightAware ADS-B
Thu 06:06:14 PM 39.8450 -89.0990 89° East 529 609 39,000  Level FlightAware ADS-B
Thu 06:06:49 PM 39.8450 -88.9830 90° East 530 610 39,000  Level FlightAware ADS-B
Thu 06:07:39 PM 39.8450 -88.8250 90° East 530 610 39,000  Level FlightAware ADS-B
Thu 06:08:19 PM 39.8450 -88.7000 90° East 530 610 39,000  Level FlightAware ADS-B
Thu 06:09:04 PM 39.8440 -88.5570 90° East 531 611 39,000  Level FlightAware ADS-B
Thu 06:09:59 PM 39.8440 -88.3860 90° East 532 612 39,000  Level FlightAware ADS-B
Thu 06:10:39 PM 39.8430 -88.2490 91° East 532 612 39,000  Level FlightAware ADS-B
Thu 06:11:24 PM 39.8420 -88.1170 91° East 532 612 39,000  Level FlightAware ADS-B
Thu 06:12:04 PM 39.8410 -87.9850 91° East 532 612 39,000  Level FlightAware ADS-B
Thu 06:12:54 PM 39.8400 -87.8240 90° East 532 612 39,000  Level FlightAware ADS-B
Thu 06:13:44 PM 39.8390 -87.6650 90° East 531 611 39,000  Level FlightAware ADS-B
Thu 06:14:29 PM 39.8370 -87.5230 91° East 532 612 39,000  Level FlightAware ADS-B
Thu 06:15:19 PM 39.8350 -87.3590 91° East 531 611 39,000  Level FlightAware ADS-B
Thu 06:16:19 PM 39.8330 -87.1710 91° East 531 611 39,000  Level FlightAware ADS-B
Thu 06:16:59 PM 39.8310 -87.0400 91° East 531 611 39,000  Level FlightAware ADS-B
Thu 06:17:39 PM 39.8290 -86.9160 91° East 531 611 39,000  Level FlightAware ADS-B
Thu 06:18:24 PM 39.8270 -86.7840 91° East 531 611 39,000  Level FlightAware ADS-B
Thu 06:19:04 PM 39.8240 -86.6520 92° East 531 611 39,000  Level FlightAware ADS-B
Thu 06:19:49 PM 39.8210 -86.4990 91° East 530 610 39,000  Level FlightAware ADS-B
Thu 06:20:29 PM 39.8230 -86.3720 89° East 524 603 39,000  Level FlightAware ADS-B
Thu 06:21:04 PM 39.8370 -86.2710 80° East 517 595 39,000  Level FlightAware ADS-B
Thu 06:21:49 PM 39.8610 -86.1480 76° East 517 595 39,000  Level FlightAware ADS-B
Thu 06:22:34 PM 39.8950 -85.9980 73° East 523 602 39,000  Level FlightAware ADS-B
Thu 06:23:19 PM 39.9250 -85.8560 75° East 527 606 39,000  Level FlightAware ADS-B
Thu 06:23:59 PM 39.9490 -85.7440 74° East 527 606 39,000  Level FlightAware ADS-B
Thu 06:24:49 PM 39.9810 -85.5920 75° East 528 608 39,000  Level FlightAware ADS-B
Thu 06:25:34 PM 40.0090 -85.4500 76° East 530 610 39,000  Level FlightAware ADS-B
Thu 06:26:19 PM 40.0380 -85.3100 75° East 531 611 39,000  Level FlightAware ADS-B
Thu 06:27:04 PM 40.0650 -85.1760 75° East 532 612 39,000  Level FlightAware ADS-B
Thu 06:27:44 PM 40.0910 -85.0500 75° East 532 612 39,000  Level FlightAware ADS-B
Thu 06:29:09 PM 40.1460 -84.7760 75° East 534 615 39,000  Level FlightAware ADS-B
Thu 06:29:49 PM 40.1710 -84.6500 75° East 532 612 39,000  Level FlightAware ADS-B
Thu 06:30:34 PM 40.1980 -84.5120 76° East 531 611 39,000  Level FlightAware ADS-B
Thu 06:31:14 PM 40.2220 -84.3890 76° East 531 611 39,000  Level FlightAware ADS-B
Thu 06:31:54 PM 40.2450 -84.2730 75° East 530 610 39,000  Level FlightAware ADS-B
Thu 06:32:39 PM 40.2730 -84.1270 76° East 530 610 39,000  Level FlightAware ADS-B
Thu 06:33:24 PM 40.3150 -83.9920 68° East 510 587 39,000  Level FlightAware ADS-B
Thu 06:34:04 PM 40.3700 -83.8930 54° Northeast 503 579 39,000  Level FlightAware ADS-B
Thu 06:34:44 PM 40.4270 -83.7950 53° Northeast 503 579 39,000  Level FlightAware ADS-B
Thu 06:35:29 PM 40.4890 -83.6880 53° Northeast 503 579 39,000  Level FlightAware ADS-B
Thu 06:36:09 PM 40.5450 -83.5920 52° Northeast 503 579 39,000  Level FlightAware ADS-B
Thu 06:36:54 PM 40.6090 -83.4800 53° Northeast 504 580 39,000  Level FlightAware ADS-B
Thu 06:37:34 PM 40.6630 -83.3870 53° Northeast 504 580 39,000  Level FlightAware ADS-B
Thu 06:38:14 PM 40.7190 -83.2890 53° Northeast 504 580 39,000  Level FlightAware ADS-B
Thu 06:38:54 PM 40.7720 -83.1970 53° Northeast 503 579 39,000  Level FlightAware ADS-B
Thu 06:39:49 PM 40.8480 -83.0630 53° Northeast 504 580 39,000  Level FlightAware ADS-B
Thu 06:40:44 PM 40.9280 -82.9240 53° Northeast 504 580 39,000  Level FlightAware ADS-B
Thu 06:41:29 PM 40.9900 -82.8150 53° Northeast 505 581 39,000  Level FlightAware ADS-B
Thu 06:42:09 PM 41.0450 -82.7140 54° Northeast 508 585 39,000  Level FlightAware ADS-B
Thu 06:42:54 PM 41.0970 -82.5840 62° Northeast 514 592 39,000  Level FlightAware ADS-B
Thu 06:43:39 PM 41.1440 -82.4530 64° Northeast 516 594 39,000  Level FlightAware ADS-B
Thu 06:44:09 PM 41.1720 -82.3730 65° Northeast 517 595 39,000  Level FlightAware ADS-B
Thu 06:45:04 PM 41.2280 -82.2070 66° East 517 595 39,000  Level FlightAware ADS-B
Thu 06:45:44 PM 41.2650 -82.0930 67° East 516 594 39,000  Level FlightAware ADS-B
Thu 06:46:24 PM 41.3030 -81.9770 66° East 517 595 39,000  Level FlightAware ADS-B
Thu 06:47:09 PM 41.3460 -81.8450 67° East 518 596 39,000  Level FlightAware ADS-B
Thu 06:47:49 PM 41.3850 -81.7260 66° East 517 595 39,000  Level FlightAware ADS-B
Thu 06:48:34 PM 41.4270 -81.5990 66° East 501 577 39,000  Level FlightAware ADS-B
Thu 06:49:14 PM 41.4680 -81.4890 64° Northeast 480 552 39,000  Level FlightAware ADS-B
Thu 06:49:44 PM 41.5100 -81.4220 50° Northeast 471 542 39,000  Level FlightAware ADS-B
Thu 06:50:24 PM 41.5680 -81.3350 48° Northeast 470 541 39,000  Level FlightAware ADS-B
Thu 06:51:04 PM 41.6260 -81.2510 47° Northeast 469 540 39,000  Level FlightAware ADS-B
Thu 06:51:49 PM 41.6920 -81.1560 47° Northeast 469 540 39,000  Level FlightAware ADS-B
Thu 06:52:29 PM 41.7490 -81.0750 47° Northeast 469 540 39,000  Level FlightAware ADS-B
Thu 06:53:14 PM 41.8200 -80.9750 46° Northeast 469 540 39,000  Level FlightAware ADS-B
Thu 06:53:54 PM 41.8790 -80.8920 46° Northeast 468 539 39,000  Level FlightAware ADS-B
Thu 06:54:34 PM 41.9380 -80.8090 46° Northeast 468 539 39,000  Level FlightAware ADS-B
Thu 06:55:19 PM 42.0080 -80.7120 46° Northeast 468 539 39,000  Level FlightAware ADS-B
Thu 06:55:59 PM 42.0620 -80.6370 46° Northeast 467 537 39,000  Level FlightAware ADS-B
Thu 06:56:39 PM 42.1230 -80.5520 46° Northeast 466 536 39,000  Level FlightAware ADS-B
Thu 06:57:24 PM 42.1780 -80.4530 53° Northeast 474 545 39,000  Level FlightAware ADS-B
Thu 06:58:04 PM 42.1960 -80.3320 79° East 476 548 39,000  Level FlightAware ADS-B
Thu 06:58:44 PM 42.1970 -80.2120 89° East 476 548 39,000  Level FlightAware ADS-B
Thu 06:59:29 PM 42.1980 -80.0820 89° East 476 548 39,000  Level FlightAware ADS-B
Thu 07:00:14 PM 42.1990 -79.9530 89° East 476 548 39,000  Level FlightAware ADS-B
Thu 07:00:44 PM 42.1990 -79.8600 90° East 477 549 39,000  Level FlightAware ADS-B
Thu 07:01:34 PM 42.2000 -79.7120 89° East 478 550 39,000  Level FlightAware ADS-B
Thu 07:02:19 PM 42.2000 -79.5650 90° East 479 551 39,000  Level FlightAware ADS-B
Thu 07:02:59 PM 42.2000 -79.4570 90° East 487 560 39,000  Level FlightAware ADS-B
Thu 07:03:54 PM 42.2000 -79.2940 90° East 499 574 39,000  Level FlightAware ADS-B
Thu 07:04:39 PM 42.1980 -79.1550 91° East 501 577 39,000  Level FlightAware ADS-B
Thu 07:05:19 PM 42.1760 -79.0290 103° East 499 574 39,000  Level FlightAware ADS-B
Thu 07:05:59 PM 42.1480 -78.9180 109° East 498 573 39,000  Level FlightAware ADS-B
Thu 07:06:44 PM 42.1130 -78.7770 108° East 495 570 39,000  Level FlightAware ADS-B
Thu 07:07:24 PM 42.0830 -78.6610 109° East 493 567 39,000  Level FlightAware ADS-B
Thu 07:08:09 PM 42.0490 -78.5290 109° East 492 566 39,000  Level FlightAware ADS-B
Thu 07:08:49 PM 42.0190 -78.4140 109° East 491 565 39,000  Level FlightAware ADS-B
Thu 07:09:29 PM 41.9900 -78.2990 109° East 490 564 39,000  Level FlightAware ADS-B
Thu 07:10:14 PM 41.9580 -78.1770 109° East 489 563 39,000  Level FlightAware ADS-B
Thu 07:10:54 PM 41.9260 -78.0550 109° East 488 562 39,000  Level FlightAware ADS-B
Thu 07:11:39 PM 41.8940 -77.9320 109° East 489 563 39,000  Level FlightAware ADS-B
Thu 07:12:19 PM 41.8640 -77.8190 110° East 488 562 39,000  Level FlightAware ADS-B
Thu 07:12:59 PM 41.8330 -77.7010 109° East 487 560 39,000  Level FlightAware ADS-B
Thu 07:13:44 PM 41.7990 -77.5770 110° East 486 559 39,000  Level FlightAware ADS-B
Thu 07:14:24 PM 41.7680 -77.4600 110° East 486 559 39,000  Level FlightAware ADS-B
Thu 07:15:04 PM 41.7380 -77.3470 110° East 486 559 39,000  Level FlightAware ADS-B
Thu 07:15:49 PM 41.7030 -77.2180 110° East 486 559 39,000 -667 Level FlightAware ADS-B
Thu 07:16:34 PM 41.6690 -77.0950 110° East 494 568 38,000 -1,425 Descending FlightAware ADS-B
Thu 07:17:09 PM 41.6400 -76.9910 110° East 500 575 37,100 -1,200 Descending FlightAware ADS-B
Thu 07:17:54 PM 41.6080 -76.8740 110° East 498 573 36,400 -933 Descending FlightAware ADS-B
Thu 07:18:39 PM 41.5690 -76.7330 110° East 495 570 35,700 -1,000 Descending FlightAware ADS-B
Thu 07:18:42 PM 41.5627 -76.7101 110° East 493 567 35,600 -857 Descending FlightAware ADS-B
Thu 07:19:14 PM 41.5430 -76.6380 110° East 490 564 35,200 -857 Descending FlightAware ADS-B
Thu 07:19:24 PM 41.5295 -76.5912 111° Southeast 491 565 35,000 -293 Descending FlightAware ADS-B
Thu 07:19:55 PM 41.5056 -76.5053 110° East 490 564 35,000  Level FlightAware ADS-B
Thu 07:20:25 PM 41.4811 -76.4185 111° Southeast 495 570 35,000  Level FlightAware ADS-B
Thu 07:20:58 PM 41.4550 -76.3256 111° Southeast 500 575 35,000 -646 Level FlightAware ADS-B
Thu 07:21:30 PM 41.4286 -76.2319 111° Southeast 507 583 34,300 -1,619 Descending FlightAware ADS-B
Thu 07:22:01 PM 41.4034 -76.1431 111° Southeast 502 578 33,300 -1,935 Descending FlightAware ADS-B
Thu 07:22:32 PM 41.3774 -76.0518 111° Southeast 494 568 32,300 -2,226 Descending FlightAware ADS-B
Thu 07:23:03 PM 41.3531 -75.9667 111° Southeast 486 559 31,000 -2,323 Descending FlightAware ADS-B
Thu 07:23:34 PM 41.3310 -75.8910 111° Southeast 479 551 29,900 -2,438 Descending FlightAware ADS-B
Thu 07:23:35 PM 41.3276 -75.8784 110° East 474 545 29,700 -2,323 Descending FlightAware ADS-B
Thu 07:24:05 PM 41.3041 -75.7962 111° Southeast 460 529 28,700 -1,967 Descending FlightAware ADS-B
Thu 07:24:36 PM 41.2808 -75.7171 111° Southeast 456 525 27,700 -1,938 Descending FlightAware ADS-B
Thu 07:25:10 PM 41.2525 -75.6299 113° Southeast 449 517 26,600 -1,881 Descending FlightAware ADS-B
Thu 07:25:43 PM 41.2250 -75.5485 114° Southeast 441 507 25,600 -1,810 Descending FlightAware ADS-B
Thu 07:26:13 PM 41.2005 -75.4763 114° Southeast 420 483 24,700 -2,000 Descending FlightAware ADS-B
Thu 07:26:52 PM 41.1697 -75.3863 114° Southeast 398 458 23,300 -1,459 Descending FlightAware ADS-B
Thu 07:27:27 PM 41.1433 -75.3094 114° Southeast 392 451 22,900 -686 Descending FlightAware ADS-B
Thu 07:28:02 PM 41.1179 -75.2349 114° Southeast 389 448 22,500 -636 Descending FlightAware ADS-B
Thu 07:28:33 PM 41.0945 -75.1671 115° Southeast 386 444 22,200 -667 Descending FlightAware ADS-B
Thu 07:29:05 PM 41.0710 -75.0986 114° Southeast 382 440 21,800 -762 Descending FlightAware ADS-B
Thu 07:29:36 PM 41.0489 -75.0342 114° Southeast 379 436 21,400 -689 Descending FlightAware ADS-B
Thu 07:30:06 PM 41.0266 -74.9693 114° Southeast 374 430 21,100 -414 Descending FlightAware ADS-B
Thu 07:30:34 PM 41.0072 -74.9130 115° Southeast 372 428 21,000 -171 Descending FlightAware ADS-B
Thu 07:30:41 PM 41.0025 -74.8978 112° Southeast 374 430 21,000  Level FlightAware ADS-B
Thu 07:31:05 PM 40.9914 -74.8442 105° East 379 436 21,000 -154 Level FlightAware ADS-B
Thu 07:31:20 PM 40.9869 -74.8102 100° East 385 443 20,900 -522 Descending FlightAware ADS-B
Thu 07:31:28 PM 40.9857 -74.7904 95° East 389 448 20,800 -600 Descending FlightAware ADS-B
Thu 07:31:40 PM 40.9876 -74.7620 85° East 391 450 20,700 -600 Descending FlightAware ADS-B
Thu 07:31:48 PM 40.9910 -74.7440 76° East 391 450 20,600 -857 Descending FlightAware ADS-B
Thu 07:31:54 PM 40.9945 -74.7309 71° East 390 449 20,500 -667 Descending FlightAware ADS-B
Thu 07:32:24 PM 41.0145 -74.6640 68° East 385 443 20,200 -689 Descending FlightAware ADS-B
Thu 07:32:55 PM 41.0348 -74.5980 68° East 380 437 19,800 -750 Descending FlightAware ADS-B
Thu 07:33:28 PM 41.0564 -74.5253 68° East 376 433 19,400 -656 Descending FlightAware ADS-B
Thu 07:33:59 PM 41.0755 -74.4603 69° East 372 428 19,100 -522 Descending FlightAware ADS-B
Thu 07:34:14 PM 41.0847 -74.4281 69° East 371 427 19,000 -222 Descending FlightAware ADS-B
Thu 07:34:26 PM 41.0894 -74.4030 76° East 371 427 19,000  Level FlightAware ADS-B
Thu 07:34:29 PM 41.0903 -74.3949 82° East 371 427 19,000  Level FlightAware ADS-B
Thu 07:34:36 PM 41.0907 -74.3790 88° East 372 428 19,000  Level FlightAware ADS-B
Thu 07:34:45 PM 41.0894 -74.3577 95° East 372 428 19,000  Level FlightAware ADS-B
Thu 07:34:49 PM 41.0882 -74.3488 100° East 372 428 19,000  Level FlightAware ADS-B
Thu 07:35:06 PM 41.0782 -74.3146 111° Southeast 367 422 19,000  Level FlightAware ADS-B
Thu 07:35:16 PM 41.0683 -74.2947 123° Southeast 359 413 19,000  Level FlightAware ADS-B
Thu 07:35:28 PM 41.0545 -74.2762 135° Southeast 350 403 19,000  Level FlightAware ADS-B
Thu 07:36:00 PM 41.0147 -74.2374 144° Southeast 344 396 19,000  Level FlightAware ADS-B
Thu 07:36:30 PM 40.9749 -74.2003 145° Southeast 345 397 19,000  Level FlightAware ADS-B
Thu 07:37:02 PM 40.9335 -74.1620 145° Southeast 345 397 19,000  Level FlightAware ADS-B
Thu 07:37:15 PM 40.9163 -74.1479 148° Southeast 338 389 19,000  Level FlightAware ADS-B
Thu 07:37:36 PM 40.8860 -74.1301 156° South 331 381 19,000 -188 Level FlightAware ADS-B
Thu 07:37:47 PM 40.8710 -74.1218 157° South 331 381 18,900 -938 Descending FlightAware ADS-B
Thu 07:38:08 PM 40.8417 -74.1057 157° South 327 376 18,500 -1,400 Descending FlightAware ADS-B
Thu 07:38:17 PM 40.8283 -74.0985 158° South 326 375 18,200 -1,742 Descending FlightAware ADS-B
Thu 07:38:39 PM 40.7982 -74.0823 158° South 324 373 17,600 -1,588 Descending FlightAware ADS-B
Thu 07:38:51 PM 40.7821 -74.0738 158° South 323 372 17,300 -1,886 Descending FlightAware ADS-B
Thu 07:39:14 PM 40.7500 -74.0566 158° South 318 366 16,500 -2,200 Descending FlightAware ADS-B
Thu 07:39:21 PM 40.7404 -74.0516 158° South 316 364 16,200 -2,842 Descending FlightAware ADS-B
Thu 07:39:52 PM 40.6983 -74.0300 159° South 318 366 14,700 -2,710 Descending FlightAware ADS-B
Thu 07:40:23 PM 40.6560 -74.0098 160° South 313 360 13,400 -1,839 Descending FlightAware ADS-B
Thu 07:40:54 PM 40.6139 -73.9907 161° South 308 354 12,800 -656 Descending FlightAware ADS-B
Thu 07:41:27 PM 40.5691 -73.9699 161° South 310 357 12,700 -923 Descending FlightAware ADS-B
Thu 07:41:59 PM 40.5280 -73.9510 161° South 301 346 11,800 -1,946 Descending FlightAware ADS-B
Thu 07:42:04 PM 40.5196 -73.9473 161° South 300 345 11,500 -2,813 Descending FlightAware ADS-B
Thu 07:42:31 PM 40.4838 -73.9309 161° South 299 344 10,300 -2,571 Descending FlightAware ADS-B
Thu 07:42:39 PM 40.4745 -73.9259 158° South 300 345 10,000 -2,211 Descending FlightAware ADS-B
Thu 07:42:50 PM 40.4608 -73.9174 155° Southeast 299 344 9,600 -2,444 Descending FlightAware ADS-B
Thu 07:43:06 PM 40.4420 -73.9018 148° Southeast 299 344 8,900 -2,516 Descending FlightAware ADS-B
Thu 07:43:21 PM 40.4249 -73.8856 144° Southeast 294 338 8,300 -2,182 Descending FlightAware ADS-B
Thu 07:43:39 PM 40.4057 -73.8675 144° Southeast 289 333 7,700 -2,182 Descending FlightAware ADS-B
Thu 07:43:54 PM 40.3892 -73.8516 144° Southeast 285 328 7,100 -2,516 Descending FlightAware ADS-B
Thu 07:44:10 PM 40.3722 -73.8353 144° Southeast 282 325 6,400 -2,516 Descending FlightAware ADS-B
Thu 07:44:25 PM 40.3560 -73.8199 144° Southeast 278 320 5,800 -2,308 Descending FlightAware ADS-B
Thu 07:44:36 PM 40.3461 -73.8094 141° Southeast 279 321 5,400 -2,308 Descending FlightAware ADS-B
Thu 07:44:51 PM 40.3311 -73.7909 137° Southeast 277 319 4,800 -2,229 Descending FlightAware ADS-B
Thu 07:45:11 PM 40.3147 -73.7670 132° Southeast 278 320 4,100 -952 Descending FlightAware ADS-B
Thu 07:45:54 PM 40.3060 -73.7040 100° East 272 313 3,800 -429 Descending FlightAware ADS-B
Thu 07:46:07 PM 40.3198 -73.6789 54° Northeast 273 314 3,700 -109 Descending FlightAware ADS-B
Thu 07:46:49 PM 40.3520 -73.6410 42° Northeast 263 303 3,700  Level FlightAware ADS-B
Thu 07:47:19 PM 40.3830 -73.6090 38° Northeast 262 302 3,700  Level FlightAware ADS-B
Thu 07:47:49 PM 40.4120 -73.5770 40° Northeast 262 302 3,700  Level FlightAware ADS-B
Thu 07:48:14 PM 40.4360 -73.5530 37° Northeast 258 297 3,700  Level FlightAware ADS-B
Thu 07:48:44 PM 40.4680 -73.5290 30° Northeast 259 298 3,700  Level FlightAware ADS-B
Thu 07:49:14 PM 40.5000 -73.5060 29° Northeast 260 299 3,700  Level FlightAware ADS-B
Thu 07:49:39 PM 40.5250 -73.4870 30° Northeast 261 300 3,700  Level FlightAware ADS-B
Thu 07:50:09 PM 40.5580 -73.4640 28° Northeast 261 300 3,700  Level FlightAware ADS-B
Thu 07:50:34 PM 40.5850 -73.4440 29° Northeast 262 302 3,700  Level FlightAware ADS-B
Thu 07:51:04 PM 40.6150 -73.4220 29° Northeast 262 302 3,700  Level FlightAware ADS-B
Thu 07:51:29 PM 40.6450 -73.4070 21° North 244 281 3,700 150 Level FlightAware ADS-B
Thu 07:51:44 PM 40.6600 -73.4090 354° North 226 260 3,800  Climbing FlightAware ADS-B
Thu 07:52:14 PM 40.6890 -73.4170 348° North 213 245 3,700 -100 Descending FlightAware ADS-B
Thu 07:52:44 PM 40.7190 -73.4260 347° North 215 247 3,700  Level FlightAware ADS-B
Thu 07:53:09 PM 40.7430 -73.4330 348° North 217 250 3,700 -109 Level FlightAware ADS-B
Thu 07:53:39 PM 40.7710 -73.4460 341° North 212 244 3,600 -533 Descending FlightAware ADS-B
Thu 07:53:54 PM 40.7780 -73.4640 297° West 208 239 3,300 -1,200 Descending FlightAware ADS-B
Thu 07:54:19 PM 40.7810 -73.4950 277° West 210 242 2,800 -1,091 Descending FlightAware ADS-B
Thu 07:54:49 PM 40.7840 -73.5350 276° West 215 247 2,300 -1,091 Descending FlightAware ADS-B
Thu 07:55:14 PM 40.7910 -73.5660 287° West 214 246 1,800 -655 Descending FlightAware ADS-B
Thu 07:55:44 PM 40.7970 -73.5990 284° West 184 212 1,700  Descending FlightAware ADS-B
Thu 07:55:59 PM 40.7940 -73.6140 255° West 178 205 1,800 150 Climbing FlightAware ADS-B
Thu 07:56:24 PM 40.7770 -73.6320 219° Southwest 176 203 1,800 -109 Level FlightAware ADS-B
Thu 07:56:54 PM 40.7570 -73.6480 211° Southwest 172 198 1,700 -109 Descending FlightAware ADS-B
Thu 07:57:19 PM 40.7380 -73.6610 207° Southwest 174 200 1,700  Level FlightAware ADS-B
Thu 07:57:49 PM 40.7190 -73.6760 211° Southwest 172 198 1,700 -500 Level FlightAware ADS-B
Thu 07:58:19 PM 40.6980 -73.6920 210° Southwest 160 184 1,200 -764 Descending FlightAware ADS-B
Thu 07:58:44 PM 40.6830 -73.7040 211° Southwest 128 147 1,000 -655 Descending FlightAware ADS-B
Thu 07:59:14 PM 40.6690 -73.7160 213° Southwest 122 140 600 -764 Descending FlightAware ADS-B
Thu 07:59:39 PM 40.6560 -73.7260 210° Southwest 117 135 300 -720 Descending FlightAware ADS-B
Thu 08:00:09 PM 40.6420 -73.7380 213° Southwest 129 148 -600 Descending FlightAware ADS-B

Login

Don't have an account? Register now (free) for customized features, flight alerts, and more!